sensor_id;sensor_type;location;lat;lon;timestamp;P1;durP1;ratioP1;P2;durP2;ratioP2
609;SDS011;292;48.800;9.216;2022-11-23T00:00:36;11.57;;;3.20;;
609;SDS011;292;48.800;9.216;2022-11-23T00:03:03;14.52;;;3.00;;
609;SDS011;292;48.800;9.216;2022-11-23T00:05:30;6.18;;;2.50;;
609;SDS011;292;48.800;9.216;2022-11-23T00:07:57;9.23;;;2.35;;
609;SDS011;292;48.800;9.216;2022-11-23T00:10:24;9.00;;;2.45;;
609;SDS011;292;48.800;9.216;2022-11-23T00:12:51;5.13;;;2.08;;
609;SDS011;292;48.800;9.216;2022-11-23T00:15:19;4.60;;;2.10;;
609;SDS011;292;48.800;9.216;2022-11-23T00:17:47;11.05;;;2.47;;
609;SDS011;292;48.800;9.216;2022-11-23T00:20:14;11.77;;;2.33;;
609;SDS011;292;48.800;9.216;2022-11-23T00:22:41;5.88;;;2.38;;
609;SDS011;292;48.800;9.216;2022-11-23T00:25:08;4.13;;;2.17;;
609;SDS011;292;48.800;9.216;2022-11-23T00:27:35;9.68;;;2.13;;
609;SDS011;292;48.800;9.216;2022-11-23T00:30:03;4.20;;;1.98;;
609;SDS011;292;48.800;9.216;2022-11-23T00:32:31;7.03;;;1.60;;
609;SDS011;292;48.800;9.216;2022-11-23T00:34:58;7.07;;;1.80;;
609;SDS011;292;48.800;9.216;2022-11-23T00:37:25;6.47;;;1.83;;
609;SDS011;292;48.800;9.216;2022-11-23T00:39:53;5.38;;;2.10;;
609;SDS011;292;48.800;9.216;2022-11-23T00:42:19;5.32;;;1.90;;
609;SDS011;292;48.800;9.216;2022-11-23T00:44:46;7.18;;;2.15;;
609;SDS011;292;48.800;9.216;2022-11-23T00:47:13;13.18;;;3.08;;
609;SDS011;292;48.800;9.216;2022-11-23T00:49:42;8.25;;;1.77;;
609;SDS011;292;48.800;9.216;2022-11-23T00:52:09;8.27;;;2.35;;
609;SDS011;292;48.800;9.216;2022-11-23T00:54:36;4.78;;;1.70;;
609;SDS011;292;48.800;9.216;2022-11-23T00:57:03;5.60;;;1.80;;
609;SDS011;292;48.800;9.216;2022-11-23T00:59:30;8.15;;;1.80;;
609;SDS011;292;48.800;9.216;2022-11-23T01:01:57;5.72;;;1.90;;
609;SDS011;292;48.800;9.216;2022-11-23T01:04:24;4.15;;;1.80;;
609;SDS011;292;48.800;9.216;2022-11-23T01:06:53;8.68;;;2.05;;
609;SDS011;292;48.800;9.216;2022-11-23T01:09:21;3.58;;;1.52;;
609;SDS011;292;48.800;9.216;2022-11-23T01:11:50;7.80;;;2.05;;
609;SDS011;292;48.800;9.216;2022-11-23T01:14:18;7.30;;;1.90;;
609;SDS011;292;48.800;9.216;2022-11-23T01:16:46;7.60;;;2.00;;
609;SDS011;292;48.800;9.216;2022-11-23T01:19:15;3.65;;;1.50;;
609;SDS011;292;48.800;9.216;2022-11-23T01:21:44;3.72;;;1.50;;
609;SDS011;292;48.800;9.216;2022-11-23T01:24:13;4.40;;;1.52;;
609;SDS011;292;48.800;9.216;2022-11-23T01:26:41;7.70;;;1.60;;
609;SDS011;292;48.800;9.216;2022-11-23T01:29:10;5.80;;;1.98;;
609;SDS011;292;48.800;9.216;2022-11-23T01:31:37;1.90;;;1.30;;
609;SDS011;292;48.800;9.216;2022-11-23T01:34:06;4.47;;;1.80;;
609;SDS011;292;48.800;9.216;2022-11-23T01:36:33;6.20;;;1.65;;
609;SDS011;292;48.800;9.216;2022-11-23T01:39:00;2.20;;;1.33;;
609;SDS011;292;48.800;9.216;2022-11-23T01:41:31;2.20;;;1.17;;
609;SDS011;292;48.800;9.216;2022-11-23T01:44:17;7.10;;;1.70;;
609;SDS011;292;48.800;9.216;2022-11-23T01:46:51;5.30;;;1.60;;
609;SDS011;292;48.800;9.216;2022-11-23T01:49:18;10.68;;;2.13;;
609;SDS011;292;48.800;9.216;2022-11-23T01:51:47;6.38;;;1.50;;
609;SDS011;292;48.800;9.216;2022-11-23T01:54:20;7.43;;;1.73;;
609;SDS011;292;48.800;9.216;2022-11-23T01:56:52;4.57;;;1.20;;
609;SDS011;292;48.800;9.216;2022-11-23T01:59:23;5.13;;;1.95;;
609;SDS011;292;48.800;9.216;2022-11-23T02:01:52;9.15;;;2.13;;
609;SDS011;292;48.800;9.216;2022-11-23T02:04:20;10.85;;;2.03;;
609;SDS011;292;48.800;9.216;2022-11-23T02:06:50;5.25;;;1.70;;
609;SDS011;292;48.800;9.216;2022-11-23T02:09:18;3.90;;;1.92;;
609;SDS011;292;48.800;9.216;2022-11-23T02:11:47;3.83;;;1.55;;
609;SDS011;292;48.800;9.216;2022-11-23T02:14:15;5.53;;;2.00;;
609;SDS011;292;48.800;9.216;2022-11-23T02:16:43;4.75;;;1.55;;
609;SDS011;292;48.800;9.216;2022-11-23T02:19:13;7.40;;;2.25;;
609;SDS011;292;48.800;9.216;2022-11-23T02:21:47;6.65;;;1.80;;
609;SDS011;292;48.800;9.216;2022-11-23T02:24:19;5.60;;;1.75;;
609;SDS011;292;48.800;9.216;2022-11-23T02:26:53;6.72;;;2.42;;
609;SDS011;292;48.800;9.216;2022-11-23T02:29:22;10.95;;;2.60;;
609;SDS011;292;48.800;9.216;2022-11-23T02:31:50;5.70;;;2.30;;
609;SDS011;292;48.800;9.216;2022-11-23T02:34:18;6.50;;;2.40;;
609;SDS011;292;48.800;9.216;2022-11-23T02:36:46;7.60;;;2.50;;
609;SDS011;292;48.800;9.216;2022-11-23T02:39:15;6.88;;;2.50;;
609;SDS011;292;48.800;9.216;2022-11-23T02:41:46;16.20;;;3.05;;
609;SDS011;292;48.800;9.216;2022-11-23T02:44:22;12.32;;;2.88;;
609;SDS011;292;48.800;9.216;2022-11-23T02:46:57;8.40;;;4.07;;
609;SDS011;292;48.800;9.216;2022-11-23T02:49:24;8.65;;;2.70;;
609;SDS011;292;48.800;9.216;2022-11-23T02:51:51;8.52;;;3.40;;
609;SDS011;292;48.800;9.216;2022-11-23T02:54:18;8.77;;;3.10;;
609;SDS011;292;48.800;9.216;2022-11-23T02:56:45;15.20;;;3.15;;
609;SDS011;292;48.800;9.216;2022-11-23T02:59:12;9.32;;;2.97;;
609;SDS011;292;48.800;9.216;2022-11-23T03:01:41;11.18;;;2.90;;
609;SDS011;292;48.800;9.216;2022-11-23T03:04:08;8.65;;;3.47;;
609;SDS011;292;48.800;9.216;2022-11-23T03:06:35;7.57;;;2.42;;
609;SDS011;292;48.800;9.216;2022-11-23T03:09:02;8.95;;;2.65;;
609;SDS011;292;48.800;9.216;2022-11-23T03:11:29;10.68;;;3.38;;
609;SDS011;292;48.800;9.216;2022-11-23T03:13:56;8.48;;;2.72;;
609;SDS011;292;48.800;9.216;2022-11-23T03:16:24;10.10;;;3.00;;
609;SDS011;292;48.800;9.216;2022-11-23T03:18:52;12.95;;;3.00;;
609;SDS011;292;48.800;9.216;2022-11-23T03:21:19;6.45;;;2.72;;
609;SDS011;292;48.800;9.216;2022-11-23T03:23:47;7.55;;;3.22;;
609;SDS011;292;48.800;9.216;2022-11-23T03:26:14;10.38;;;3.22;;
609;SDS011;292;48.800;9.216;2022-11-23T03:28:40;11.13;;;3.97;;
609;SDS011;292;48.800;9.216;2022-11-23T03:31:08;11.25;;;3.88;;
609;SDS011;292;48.800;9.216;2022-11-23T03:33:35;10.40;;;3.53;;
609;SDS011;292;48.800;9.216;2022-11-23T03:36:04;9.45;;;3.10;;
609;SDS011;292;48.800;9.216;2022-11-23T03:38:32;12.65;;;3.50;;
609;SDS011;292;48.800;9.216;2022-11-23T03:40:59;11.35;;;3.35;;
609;SDS011;292;48.800;9.216;2022-11-23T03:43:26;11.05;;;3.17;;
609;SDS011;292;48.800;9.216;2022-11-23T03:45:53;10.43;;;3.72;;
609;SDS011;292;48.800;9.216;2022-11-23T03:48:19;7.35;;;3.08;;
609;SDS011;292;48.800;9.216;2022-11-23T03:50:46;13.25;;;4.15;;
609;SDS011;292;48.800;9.216;2022-11-23T03:53:15;13.10;;;4.72;;
609;SDS011;292;48.800;9.216;2022-11-23T03:55:44;13.57;;;3.97;;
609;SDS011;292;48.800;9.216;2022-11-23T03:58:11;11.57;;;3.67;;
609;SDS011;292;48.800;9.216;2022-11-23T04:00:39;6.60;;;3.13;;
609;SDS011;292;48.800;9.216;2022-11-23T04:03:06;9.07;;;3.45;;
609;SDS011;292;48.800;9.216;2022-11-23T04:05:33;13.27;;;4.10;;
609;SDS011;292;48.800;9.216;2022-11-23T04:08:00;9.07;;;3.95;;
609;SDS011;292;48.800;9.216;2022-11-23T04:10:29;18.05;;;4.32;;
609;SDS011;292;48.800;9.216;2022-11-23T04:12:56;22.85;;;5.40;;
609;SDS011;292;48.800;9.216;2022-11-23T04:15:24;13.40;;;5.00;;
609;SDS011;292;48.800;9.216;2022-11-23T04:17:51;21.83;;;5.00;;
609;SDS011;292;48.800;9.216;2022-11-23T04:20:19;12.80;;;4.38;;
609;SDS011;292;48.800;9.216;2022-11-23T04:22:46;14.48;;;4.85;;
609;SDS011;292;48.800;9.216;2022-11-23T04:25:13;9.57;;;3.58;;
609;SDS011;292;48.800;9.216;2022-11-23T04:27:42;8.75;;;3.75;;
609;SDS011;292;48.800;9.216;2022-11-23T04:30:10;9.63;;;3.42;;
609;SDS011;292;48.800;9.216;2022-11-23T04:32:37;8.95;;;3.95;;
609;SDS011;292;48.800;9.216;2022-11-23T04:35:05;15.70;;;3.95;;
609;SDS011;292;48.800;9.216;2022-11-23T04:37:32;9.57;;;3.40;;
609;SDS011;292;48.800;9.216;2022-11-23T04:39:59;9.73;;;3.80;;
609;SDS011;292;48.800;9.216;2022-11-23T04:42:26;11.35;;;3.72;;
609;SDS011;292;48.800;9.216;2022-11-23T04:44:54;11.38;;;3.75;;
609;SDS011;292;48.800;9.216;2022-11-23T04:47:22;12.00;;;3.42;;
609;SDS011;292;48.800;9.216;2022-11-23T04:49:49;7.93;;;3.00;;
609;SDS011;292;48.800;9.216;2022-11-23T04:52:16;14.75;;;3.97;;
609;SDS011;292;48.800;9.216;2022-11-23T04:54:43;9.48;;;3.45;;
609;SDS011;292;48.800;9.216;2022-11-23T04:57:10;11.68;;;3.45;;
609;SDS011;292;48.800;9.216;2022-11-23T04:59:37;24.50;;;4.50;;
609;SDS011;292;48.800;9.216;2022-11-23T05:02:05;13.40;;;3.22;;
609;SDS011;292;48.800;9.216;2022-11-23T05:04:32;8.10;;;2.83;;
609;SDS011;292;48.800;9.216;2022-11-23T05:07:00;13.07;;;3.67;;
609;SDS011;292;48.800;9.216;2022-11-23T05:09:27;10.52;;;2.90;;
609;SDS011;292;48.800;9.216;2022-11-23T05:11:54;18.08;;;3.85;;
609;SDS011;292;48.800;9.216;2022-11-23T05:14:21;10.00;;;2.95;;
609;SDS011;292;48.800;9.216;2022-11-23T05:16:47;11.20;;;3.35;;
609;SDS011;292;48.800;9.216;2022-11-23T05:19:16;18.38;;;3.47;;
609;SDS011;292;48.800;9.216;2022-11-23T05:21:43;10.15;;;2.90;;
609;SDS011;292;48.800;9.216;2022-11-23T05:24:10;10.77;;;4.15;;
609;SDS011;292;48.800;9.216;2022-11-23T05:26:37;16.52;;;3.90;;
609;SDS011;292;48.800;9.216;2022-11-23T05:29:04;10.70;;;3.70;;
609;SDS011;292;48.800;9.216;2022-11-23T05:31:31;18.60;;;4.40;;
609;SDS011;292;48.800;9.216;2022-11-23T05:33:59;20.73;;;4.60;;
609;SDS011;292;48.800;9.216;2022-11-23T05:36:27;11.60;;;4.03;;
609;SDS011;292;48.800;9.216;2022-11-23T05:38:54;15.93;;;4.35;;
609;SDS011;292;48.800;9.216;2022-11-23T05:41:21;15.40;;;4.22;;
609;SDS011;292;48.800;9.216;2022-11-23T05:43:48;25.20;;;4.55;;
609;SDS011;292;48.800;9.216;2022-11-23T05:46:15;12.50;;;4.25;;
609;SDS011;292;48.800;9.216;2022-11-23T05:48:43;17.17;;;4.05;;
609;SDS011;292;48.800;9.216;2022-11-23T05:51:10;13.07;;;4.35;;
609;SDS011;292;48.800;9.216;2022-11-23T05:53:38;20.15;;;4.80;;
609;SDS011;292;48.800;9.216;2022-11-23T05:56:05;23.15;;;4.28;;
609;SDS011;292;48.800;9.216;2022-11-23T05:58:32;11.48;;;4.07;;
609;SDS011;292;48.800;9.216;2022-11-23T06:01:00;8.35;;;3.45;;
609;SDS011;292;48.800;9.216;2022-11-23T06:03:27;11.57;;;3.63;;
609;SDS011;292;48.800;9.216;2022-11-23T06:05:54;10.85;;;4.47;;
609;SDS011;292;48.800;9.216;2022-11-23T06:08:21;17.85;;;4.80;;
609;SDS011;292;48.800;9.216;2022-11-23T06:10:49;26.38;;;5.70;;
609;SDS011;292;48.800;9.216;2022-11-23T06:13:16;15.60;;;4.25;;
609;SDS011;292;48.800;9.216;2022-11-23T06:15:43;11.93;;;3.97;;
609;SDS011;292;48.800;9.216;2022-11-23T06:18:10;22.77;;;5.20;;
609;SDS011;292;48.800;9.216;2022-11-23T06:20:37;13.90;;;4.22;;
609;SDS011;292;48.800;9.216;2022-11-23T06:23:04;17.30;;;4.45;;
609;SDS011;292;48.800;9.216;2022-11-23T06:25:31;29.98;;;4.45;;
609;SDS011;292;48.800;9.216;2022-11-23T06:27:59;12.25;;;4.20;;
609;SDS011;292;48.800;9.216;2022-11-23T06:30:27;13.38;;;4.15;;
609;SDS011;292;48.800;9.216;2022-11-23T06:32:54;17.27;;;4.05;;
609;SDS011;292;48.800;9.216;2022-11-23T06:35:23;10.95;;;4.28;;
609;SDS011;292;48.800;9.216;2022-11-23T06:37:50;16.63;;;4.78;;
609;SDS011;292;48.800;9.216;2022-11-23T06:40:18;15.93;;;4.18;;
609;SDS011;292;48.800;9.216;2022-11-23T06:42:46;15.15;;;4.65;;
609;SDS011;292;48.800;9.216;2022-11-23T06:45:14;14.50;;;5.07;;
609;SDS011;292;48.800;9.216;2022-11-23T06:47:42;15.35;;;3.97;;
609;SDS011;292;48.800;9.216;2022-11-23T06:50:09;15.73;;;4.20;;
609;SDS011;292;48.800;9.216;2022-11-23T06:52:36;12.40;;;3.83;;
609;SDS011;292;48.800;9.216;2022-11-23T06:55:03;11.68;;;3.90;;
609;SDS011;292;48.800;9.216;2022-11-23T06:57:31;13.25;;;4.07;;
609;SDS011;292;48.800;9.216;2022-11-23T06:59:58;13.35;;;3.70;;
609;SDS011;292;48.800;9.216;2022-11-23T07:02:26;9.65;;;3.33;;
609;SDS011;292;48.800;9.216;2022-11-23T07:04:53;12.77;;;4.45;;
609;SDS011;292;48.800;9.216;2022-11-23T07:07:20;14.80;;;4.40;;
609;SDS011;292;48.800;9.216;2022-11-23T07:09:48;16.48;;;4.28;;
609;SDS011;292;48.800;9.216;2022-11-23T07:12:14;12.02;;;4.88;;
609;SDS011;292;48.800;9.216;2022-11-23T07:14:41;26.92;;;5.57;;
609;SDS011;292;48.800;9.216;2022-11-23T07:17:08;13.27;;;5.07;;
609;SDS011;292;48.800;9.216;2022-11-23T07:19:37;17.83;;;5.20;;
609;SDS011;292;48.800;9.216;2022-11-23T07:22:04;19.85;;;4.45;;
609;SDS011;292;48.800;9.216;2022-11-23T07:24:31;14.80;;;4.53;;
609;SDS011;292;48.800;9.216;2022-11-23T07:26:58;19.73;;;4.35;;
609;SDS011;292;48.800;9.216;2022-11-23T07:29:25;15.32;;;4.20;;
609;SDS011;292;48.800;9.216;2022-11-23T07:31:52;17.08;;;4.65;;
609;SDS011;292;48.800;9.216;2022-11-23T07:34:19;22.67;;;5.45;;
609;SDS011;292;48.800;9.216;2022-11-23T07:36:48;27.83;;;6.30;;
609;SDS011;292;48.800;9.216;2022-11-23T07:39:15;18.17;;;5.30;;
609;SDS011;292;48.800;9.216;2022-11-23T07:41:42;21.40;;;5.88;;
609;SDS011;292;48.800;9.216;2022-11-23T07:44:09;17.67;;;5.25;;
609;SDS011;292;48.800;9.216;2022-11-23T07:46:36;19.33;;;6.00;;
609;SDS011;292;48.800;9.216;2022-11-23T07:49:04;29.85;;;5.85;;
609;SDS011;292;48.800;9.216;2022-11-23T07:51:31;20.08;;;4.53;;
609;SDS011;292;48.800;9.216;2022-11-23T07:53:59;18.17;;;5.35;;
609;SDS011;292;48.800;9.216;2022-11-23T07:56:26;17.50;;;5.13;;
609;SDS011;292;48.800;9.216;2022-11-23T07:58:53;16.77;;;5.13;;
609;SDS011;292;48.800;9.216;2022-11-23T08:01:20;23.38;;;4.38;;
609;SDS011;292;48.800;9.216;2022-11-23T08:03:47;17.30;;;4.68;;
609;SDS011;292;48.800;9.216;2022-11-23T08:06:14;30.65;;;4.82;;
609;SDS011;292;48.800;9.216;2022-11-23T08:08:41;14.73;;;4.43;;
609;SDS011;292;48.800;9.216;2022-11-23T08:11:10;15.32;;;5.22;;
609;SDS011;292;48.800;9.216;2022-11-23T08:13:39;11.13;;;4.60;;
609;SDS011;292;48.800;9.216;2022-11-23T08:16:06;16.50;;;4.18;;
609;SDS011;292;48.800;9.216;2022-11-23T08:18:33;15.63;;;4.18;;
609;SDS011;292;48.800;9.216;2022-11-23T08:21:00;19.88;;;4.90;;
609;SDS011;292;48.800;9.216;2022-11-23T08:23:27;18.38;;;5.20;;
609;SDS011;292;48.800;9.216;2022-11-23T08:25:54;14.82;;;4.70;;
609;SDS011;292;48.800;9.216;2022-11-23T08:28:23;14.82;;;4.25;;
609;SDS011;292;48.800;9.216;2022-11-23T08:30:50;11.18;;;4.10;;
609;SDS011;292;48.800;9.216;2022-11-23T08:33:17;15.70;;;4.78;;
609;SDS011;292;48.800;9.216;2022-11-23T08:35:44;26.20;;;4.93;;
609;SDS011;292;48.800;9.216;2022-11-23T08:38:11;11.68;;;3.72;;
609;SDS011;292;48.800;9.216;2022-11-23T08:40:38;14.82;;;3.97;;
609;SDS011;292;48.800;9.216;2022-11-23T08:43:06;19.40;;;3.70;;
609;SDS011;292;48.800;9.216;2022-11-23T08:45:34;24.75;;;4.32;;
609;SDS011;292;48.800;9.216;2022-11-23T08:48:01;15.63;;;4.18;;
609;SDS011;292;48.800;9.216;2022-11-23T08:50:29;10.95;;;4.07;;
609;SDS011;292;48.800;9.216;2022-11-23T08:52:58;16.63;;;4.20;;
609;SDS011;292;48.800;9.216;2022-11-23T08:55:26;17.23;;;4.00;;
609;SDS011;292;48.800;9.216;2022-11-23T08:57:54;10.60;;;4.05;;
609;SDS011;292;48.800;9.216;2022-11-23T09:00:21;16.50;;;4.00;;
609;SDS011;292;48.800;9.216;2022-11-23T09:02:50;16.45;;;4.30;;
609;SDS011;292;48.800;9.216;2022-11-23T09:05:17;14.77;;;4.03;;
609;SDS011;292;48.800;9.216;2022-11-23T09:07:44;11.50;;;3.58;;
609;SDS011;292;48.800;9.216;2022-11-23T09:10:11;12.20;;;3.55;;
609;SDS011;292;48.800;9.216;2022-11-23T09:12:38;19.13;;;4.40;;
609;SDS011;292;48.800;9.216;2022-11-23T09:15:05;14.35;;;3.65;;
609;SDS011;292;48.800;9.216;2022-11-23T09:17:33;15.43;;;3.25;;
609;SDS011;292;48.800;9.216;2022-11-23T09:20:01;17.75;;;4.10;;
609;SDS011;292;48.800;9.216;2022-11-23T09:22:29;8.93;;;3.63;;
609;SDS011;292;48.800;9.216;2022-11-23T09:24:57;15.18;;;2.70;;
609;SDS011;292;48.800;9.216;2022-11-23T09:27:24;12.53;;;4.17;;
609;SDS011;292;48.800;9.216;2022-11-23T09:29:51;17.03;;;4.00;;
609;SDS011;292;48.800;9.216;2022-11-23T09:32:18;12.63;;;3.30;;
609;SDS011;292;48.800;9.216;2022-11-23T09:34:45;14.90;;;3.13;;
609;SDS011;292;48.800;9.216;2022-11-23T09:37:14;13.67;;;3.07;;
609;SDS011;292;48.800;9.216;2022-11-23T09:39:41;9.20;;;3.27;;
609;SDS011;292;48.800;9.216;2022-11-23T09:42:17;10.10;;;3.00;;
609;SDS011;292;48.800;9.216;2022-11-23T09:45:07;10.50;;;3.47;;
609;SDS011;292;48.800;9.216;2022-11-23T09:47:51;11.10;;;2.93;;
609;SDS011;292;48.800;9.216;2022-11-23T09:50:49;10.20;;;3.37;;
609;SDS011;292;48.800;9.216;2022-11-23T09:53:22;9.63;;;3.13;;
609;SDS011;292;48.800;9.216;2022-11-23T09:55:54;9.97;;;2.93;;
609;SDS011;292;48.800;9.216;2022-11-23T09:58:23;12.17;;;3.07;;
609;SDS011;292;48.800;9.216;2022-11-23T10:00:58;12.70;;;2.67;;
609;SDS011;292;48.800;9.216;2022-11-23T10:03:28;12.07;;;2.70;;
609;SDS011;292;48.800;9.216;2022-11-23T10:06:01;12.47;;;2.50;;
609;SDS011;292;48.800;9.216;2022-11-23T10:08:35;9.53;;;2.40;;
609;SDS011;292;48.800;9.216;2022-11-23T10:14:10;12.73;;;2.70;;
609;SDS011;292;48.800;9.216;2022-11-23T10:16:48;8.60;;;2.30;;
609;SDS011;292;48.800;9.216;2022-11-23T10:19:24;5.57;;;2.23;;
609;SDS011;292;48.800;9.216;2022-11-23T10:22:00;7.13;;;1.93;;
609;SDS011;292;48.800;9.216;2022-11-23T10:24:38;7.67;;;2.20;;
609;SDS011;292;48.800;9.216;2022-11-23T10:27:11;10.77;;;2.40;;
609;SDS011;292;48.800;9.216;2022-11-23T10:29:40;3.90;;;1.80;;
609;SDS011;292;48.800;9.216;2022-11-23T10:32:12;5.80;;;2.13;;
609;SDS011;292;48.800;9.216;2022-11-23T10:34:48;5.10;;;1.97;;
609;SDS011;292;48.800;9.216;2022-11-23T10:37:23;6.57;;;2.40;;
609;SDS011;292;48.800;9.216;2022-11-23T10:39:52;4.20;;;2.00;;
609;SDS011;292;48.800;9.216;2022-11-23T10:42:20;8.67;;;2.20;;
609;SDS011;292;48.800;9.216;2022-11-23T10:44:51;7.70;;;2.30;;
609;SDS011;292;48.800;9.216;2022-11-23T10:52:54;7.37;;;2.30;;
609;SDS011;292;48.800;9.216;2022-11-23T10:55:27;11.87;;;2.57;;
609;SDS011;292;48.800;9.216;2022-11-23T10:57:56;10.03;;;2.97;;
609;SDS011;292;48.800;9.216;2022-11-23T11:00:24;5.07;;;2.10;;
609;SDS011;292;48.800;9.216;2022-11-23T11:02:53;4.60;;;2.20;;
609;SDS011;292;48.800;9.216;2022-11-23T11:05:31;8.07;;;2.10;;
609;SDS011;292;48.800;9.216;2022-11-23T11:07:59;8.60;;;2.53;;
609;SDS011;292;48.800;9.216;2022-11-23T11:10:34;7.30;;;2.60;;
609;SDS011;292;48.800;9.216;2022-11-23T11:15:51;6.13;;;2.37;;
609;SDS011;292;48.800;9.216;2022-11-23T11:18:20;7.20;;;1.93;;
609;SDS011;292;48.800;9.216;2022-11-23T11:20:54;6.60;;;2.30;;
609;SDS011;292;48.800;9.216;2022-11-23T11:23:27;4.67;;;1.90;;
609;SDS011;292;48.800;9.216;2022-11-23T11:26:15;5.30;;;2.23;;
609;SDS011;292;48.800;9.216;2022-11-23T11:28:46;4.40;;;1.70;;
609;SDS011;292;48.800;9.216;2022-11-23T11:31:23;7.30;;;2.00;;
609;SDS011;292;48.800;9.216;2022-11-23T11:34:15;6.50;;;2.13;;
609;SDS011;292;48.800;9.216;2022-11-23T11:36:47;7.30;;;1.97;;
609;SDS011;292;48.800;9.216;2022-11-23T11:39:21;4.13;;;2.00;;
609;SDS011;292;48.800;9.216;2022-11-23T11:41:57;4.57;;;2.03;;
609;SDS011;292;48.800;9.216;2022-11-23T11:44:27;4.37;;;1.93;;
609;SDS011;292;48.800;9.216;2022-11-23T11:46:59;5.67;;;2.07;;
609;SDS011;292;48.800;9.216;2022-11-23T11:49:35;6.60;;;1.70;;
609;SDS011;292;48.800;9.216;2022-11-23T11:52:09;5.40;;;1.57;;
609;SDS011;292;48.800;9.216;2022-11-23T11:54:41;3.63;;;1.70;;
609;SDS011;292;48.800;9.216;2022-11-23T11:57:16;5.33;;;1.60;;
609;SDS011;292;48.800;9.216;2022-11-23T11:59:47;4.23;;;1.40;;
609;SDS011;292;48.800;9.216;2022-11-23T12:02:22;5.03;;;1.83;;
609;SDS011;292;48.800;9.216;2022-11-23T12:04:55;4.47;;;1.37;;
609;SDS011;292;48.800;9.216;2022-11-23T12:07:31;4.40;;;1.53;;
609;SDS011;292;48.800;9.216;2022-11-23T12:10:03;5.77;;;1.50;;
609;SDS011;292;48.800;9.216;2022-11-23T12:12:42;5.13;;;1.60;;
609;SDS011;292;48.800;9.216;2022-11-23T12:15:15;3.20;;;1.53;;
609;SDS011;292;48.800;9.216;2022-11-23T12:17:48;5.40;;;1.33;;
609;SDS011;292;48.800;9.216;2022-11-23T12:20:33;4.50;;;1.87;;
609;SDS011;292;48.800;9.216;2022-11-23T12:23:12;5.20;;;1.97;;
609;SDS011;292;48.800;9.216;2022-11-23T12:25:47;6.30;;;1.73;;
609;SDS011;292;48.800;9.216;2022-11-23T12:28:32;5.57;;;1.40;;
609;SDS011;292;48.800;9.216;2022-11-23T12:31:12;3.70;;;1.17;;
609;SDS011;292;48.800;9.216;2022-11-23T12:33:52;7.20;;;1.03;;
609;SDS011;292;48.800;9.216;2022-11-23T12:36:37;3.60;;;1.40;;
609;SDS011;292;48.800;9.216;2022-11-23T12:39:19;3.43;;;1.50;;
609;SDS011;292;48.800;9.216;2022-11-23T12:41:58;6.00;;;1.40;;
609;SDS011;292;48.800;9.216;2022-11-23T12:47:40;7.67;;;1.40;;
609;SDS011;292;48.800;9.216;2022-11-23T12:50:19;2.70;;;0.90;;
609;SDS011;292;48.800;9.216;2022-11-23T12:52:55;3.40;;;1.40;;
609;SDS011;292;48.800;9.216;2022-11-23T12:55:29;10.10;;;3.60;;
609;SDS011;292;48.800;9.216;2022-11-23T12:58:03;2.87;;;1.37;;
609;SDS011;292;48.800;9.216;2022-11-23T13:00:38;4.53;;;1.53;;
609;SDS011;292;48.800;9.216;2022-11-23T13:03:24;1.90;;;1.10;;
609;SDS011;292;48.800;9.216;2022-11-23T13:09:16;3.17;;;1.17;;
609;SDS011;292;48.800;9.216;2022-11-23T13:12:06;2.90;;;1.10;;
609;SDS011;292;48.800;9.216;2022-11-23T13:14:48;1.70;;;1.00;;
609;SDS011;292;48.800;9.216;2022-11-23T13:17:28;2.80;;;1.13;;
609;SDS011;292;48.800;9.216;2022-11-23T13:20:08;4.53;;;1.33;;
609;SDS011;292;48.800;9.216;2022-11-23T13:22:45;4.43;;;1.10;;
609;SDS011;292;48.800;9.216;2022-11-23T13:25:21;10.10;;;1.47;;
609;SDS011;292;48.800;9.216;2022-11-23T13:27:58;3.10;;;1.10;;
609;SDS011;292;48.800;9.216;2022-11-23T13:30:28;8.30;;;1.30;;
609;SDS011;292;48.800;9.216;2022-11-23T13:33:01;4.47;;;1.20;;
609;SDS011;292;48.800;9.216;2022-11-23T13:35:48;4.20;;;1.20;;
609;SDS011;292;48.800;9.216;2022-11-23T13:38:27;7.03;;;0.90;;
609;SDS011;292;48.800;9.216;2022-11-23T13:41:02;9.53;;;1.30;;
609;SDS011;292;48.800;9.216;2022-11-23T13:43:30;3.57;;;1.37;;
609;SDS011;292;48.800;9.216;2022-11-23T13:46:18;28.10;;;14.80;;
609;SDS011;292;48.800;9.216;2022-11-23T13:48:49;4.33;;;1.83;;
609;SDS011;292;48.800;9.216;2022-11-23T13:54:01;9.00;;;1.60;;
609;SDS011;292;48.800;9.216;2022-11-23T13:56:30;7.70;;;1.47;;
609;SDS011;292;48.800;9.216;2022-11-23T14:01:58;5.00;;;1.80;;
609;SDS011;292;48.800;9.216;2022-11-23T14:04:43;3.57;;;1.37;;
609;SDS011;292;48.800;9.216;2022-11-23T14:07:14;10.87;;;1.50;;
609;SDS011;292;48.800;9.216;2022-11-23T14:09:45;4.00;;;1.10;;
609;SDS011;292;48.800;9.216;2022-11-23T14:12:19;2.70;;;1.27;;
609;SDS011;292;48.800;9.216;2022-11-23T14:14:52;4.60;;;1.17;;
609;SDS011;292;48.800;9.216;2022-11-23T14:20:43;3.40;;;1.20;;
609;SDS011;292;48.800;9.216;2022-11-23T14:26:19;2.67;;;1.17;;
609;SDS011;292;48.800;9.216;2022-11-23T14:28:58;3.40;;;0.90;;
609;SDS011;292;48.800;9.216;2022-11-23T14:31:42;5.00;;;1.43;;
609;SDS011;292;48.800;9.216;2022-11-23T14:34:19;13.17;;;1.60;;
609;SDS011;292;48.800;9.216;2022-11-23T14:36:56;1.77;;;1.00;;
609;SDS011;292;48.800;9.216;2022-11-23T14:39:34;5.00;;;1.27;;
609;SDS011;292;48.800;9.216;2022-11-23T14:42:26;4.13;;;1.10;;
609;SDS011;292;48.800;9.216;2022-11-23T14:44:56;5.03;;;1.40;;
609;SDS011;292;48.800;9.216;2022-11-23T14:47:29;7.43;;;1.33;;
609;SDS011;292;48.800;9.216;2022-11-23T14:49:57;2.13;;;0.80;;
609;SDS011;292;48.800;9.216;2022-11-23T14:52:25;7.03;;;1.20;;
609;SDS011;292;48.800;9.216;2022-11-23T14:54:55;1.67;;;1.00;;
609;SDS011;292;48.800;9.216;2022-11-23T14:57:26;3.30;;;1.67;;
609;SDS011;292;48.800;9.216;2022-11-23T15:00:02;3.30;;;1.23;;
609;SDS011;292;48.800;9.216;2022-11-23T15:02:30;7.13;;;1.10;;
609;SDS011;292;48.800;9.216;2022-11-23T15:05:02;2.50;;;1.10;;
609;SDS011;292;48.800;9.216;2022-11-23T15:07:43;2.67;;;1.10;;
609;SDS011;292;48.800;9.216;2022-11-23T15:10:18;4.57;;;1.03;;
609;SDS011;292;48.800;9.216;2022-11-23T15:12:55;6.33;;;1.10;;
609;SDS011;292;48.800;9.216;2022-11-23T15:15:23;15.40;;;1.40;;
609;SDS011;292;48.800;9.216;2022-11-23T15:17:52;4.73;;;1.40;;
609;SDS011;292;48.800;9.216;2022-11-23T15:20:20;10.00;;;1.73;;
609;SDS011;292;48.800;9.216;2022-11-23T15:22:48;2.77;;;0.93;;
609;SDS011;292;48.800;9.216;2022-11-23T15:25:16;4.87;;;1.77;;
609;SDS011;292;48.800;9.216;2022-11-23T15:27:44;6.53;;;1.30;;
609;SDS011;292;48.800;9.216;2022-11-23T15:30:15;4.63;;;1.60;;
609;SDS011;292;48.800;9.216;2022-11-23T15:32:44;4.00;;;1.10;;
609;SDS011;292;48.800;9.216;2022-11-23T15:35:22;9.10;;;1.60;;
609;SDS011;292;48.800;9.216;2022-11-23T15:37:53;5.00;;;1.47;;
609;SDS011;292;48.800;9.216;2022-11-23T15:40:20;4.23;;;1.27;;
609;SDS011;292;48.800;9.216;2022-11-23T15:42:49;3.27;;;1.03;;
609;SDS011;292;48.800;9.216;2022-11-23T15:45:34;6.40;;;1.60;;
609;SDS011;292;48.800;9.216;2022-11-23T15:48:04;3.43;;;1.40;;
609;SDS011;292;48.800;9.216;2022-11-23T15:50:35;6.17;;;1.50;;
609;SDS011;292;48.800;9.216;2022-11-23T15:53:11;4.27;;;1.20;;
609;SDS011;292;48.800;9.216;2022-11-23T15:55:39;2.10;;;1.27;;
609;SDS011;292;48.800;9.216;2022-11-23T15:58:07;4.30;;;1.30;;
609;SDS011;292;48.800;9.216;2022-11-23T16:00:43;7.03;;;1.83;;
609;SDS011;292;48.800;9.216;2022-11-23T16:03:26;1.60;;;1.00;;
609;SDS011;292;48.800;9.216;2022-11-23T16:08:52;2.50;;;1.43;;
609;SDS011;292;48.800;9.216;2022-11-23T16:11:27;4.63;;;1.70;;
609;SDS011;292;48.800;9.216;2022-11-23T16:16:59;3.77;;;1.27;;
609;SDS011;292;48.800;9.216;2022-11-23T16:19:45;4.17;;;1.67;;
609;SDS011;292;48.800;9.216;2022-11-23T16:22:19;1.90;;;1.20;;
609;SDS011;292;48.800;9.216;2022-11-23T16:24:50;5.40;;;1.67;;
609;SDS011;292;48.800;9.216;2022-11-23T16:27:24;11.30;;;1.63;;
609;SDS011;292;48.800;9.216;2022-11-23T16:29:52;7.33;;;1.27;;
609;SDS011;292;48.800;9.216;2022-11-23T16:32:22;8.03;;;1.50;;
609;SDS011;292;48.800;9.216;2022-11-23T16:34:51;2.30;;;1.30;;